sensor_id;sensor_type;location;lat;lon;timestamp;P1;durP1;ratioP1;P2;durP2;ratioP2
34064;SDS011;20339;49.754;20.158;2023-07-13T00:01:49;9.30;;;6.90;;
34064;SDS011;20339;49.754;20.158;2023-07-13T00:04:22;8.40;;;7.10;;
34064;SDS011;20339;49.754;20.158;2023-07-13T00:06:55;8.60;;;7.00;;
34064;SDS011;20339;49.754;20.158;2023-07-13T00:09:28;10.60;;;7.20;;
34064;SDS011;20339;49.754;20.158;2023-07-13T00:12:00;9.10;;;7.10;;
34064;SDS011;20339;49.754;20.158;2023-07-13T00:14:33;7.40;;;6.60;;
34064;SDS011;20339;49.754;20.158;2023-07-13T00:17:05;9.90;;;7.20;;
34064;SDS011;20339;49.754;20.158;2023-07-13T00:19:38;8.40;;;6.50;;
34064;SDS011;20339;49.754;20.158;2023-07-13T00:22:10;8.50;;;7.10;;
34064;SDS011;20339;49.754;20.158;2023-07-13T00:24:43;11.70;;;6.90;;
34064;SDS011;20339;49.754;20.158;2023-07-13T00:27:16;10.30;;;6.90;;
34064;SDS011;20339;49.754;20.158;2023-07-13T00:29:49;7.00;;;6.00;;
34064;SDS011;20339;49.754;20.158;2023-07-13T00:32:23;7.40;;;5.80;;
34064;SDS011;20339;49.754;20.158;2023-07-13T00:34:56;7.40;;;5.40;;
34064;SDS011;20339;49.754;20.158;2023-07-13T00:37:29;6.30;;;4.80;;
34064;SDS011;20339;49.754;20.158;2023-07-13T00:40:02;6.70;;;4.20;;
34064;SDS011;20339;49.754;20.158;2023-07-13T00:42:36;4.80;;;3.80;;
34064;SDS011;20339;49.754;20.158;2023-07-13T00:48:32;5.60;;;3.70;;
34064;SDS011;20339;49.754;20.158;2023-07-13T00:51:07;5.10;;;4.00;;
34064;SDS011;20339;49.754;20.158;2023-07-13T00:53:40;9.60;;;3.60;;
34064;SDS011;20339;49.754;20.158;2023-07-13T00:56:20;6.10;;;3.40;;
34064;SDS011;20339;49.754;20.158;2023-07-13T00:58:52;6.50;;;3.70;;
34064;SDS011;20339;49.754;20.158;2023-07-13T01:01:26;6.10;;;3.00;;
34064;SDS011;20339;49.754;20.158;2023-07-13T01:03:57;8.70;;;3.50;;
34064;SDS011;20339;49.754;20.158;2023-07-13T01:06:30;10.10;;;3.90;;
34064;SDS011;20339;49.754;20.158;2023-07-13T01:09:03;6.60;;;3.30;;
34064;SDS011;20339;49.754;20.158;2023-07-13T01:11:36;7.90;;;3.70;;
34064;SDS011;20339;49.754;20.158;2023-07-13T01:14:08;5.90;;;2.80;;
34064;SDS011;20339;49.754;20.158;2023-07-13T01:16:40;9.10;;;3.40;;
34064;SDS011;20339;49.754;20.158;2023-07-13T01:19:18;8.10;;;3.00;;
34064;SDS011;20339;49.754;20.158;2023-07-13T01:22:05;5.00;;;3.30;;
34064;SDS011;20339;49.754;20.158;2023-07-13T01:24:41;9.30;;;4.00;;
34064;SDS011;20339;49.754;20.158;2023-07-13T01:27:17;5.10;;;2.80;;
34064;SDS011;20339;49.754;20.158;2023-07-13T01:29:53;8.50;;;3.20;;
34064;SDS011;20339;49.754;20.158;2023-07-13T01:32:32;7.40;;;3.70;;
34064;SDS011;20339;49.754;20.158;2023-07-13T01:35:05;8.80;;;3.50;;
34064;SDS011;20339;49.754;20.158;2023-07-13T01:37:39;5.50;;;2.90;;
34064;SDS011;20339;49.754;20.158;2023-07-13T01:40:11;8.30;;;3.50;;
34064;SDS011;20339;49.754;20.158;2023-07-13T01:42:44;5.30;;;2.90;;
34064;SDS011;20339;49.754;20.158;2023-07-13T01:45:16;5.10;;;2.90;;
34064;SDS011;20339;49.754;20.158;2023-07-13T01:47:51;7.20;;;3.20;;
34064;SDS011;20339;49.754;20.158;2023-07-13T01:50:24;6.20;;;3.30;;
34064;SDS011;20339;49.754;20.158;2023-07-13T01:53:04;6.60;;;3.10;;
34064;SDS011;20339;49.754;20.158;2023-07-13T01:55:36;4.90;;;3.80;;
34064;SDS011;20339;49.754;20.158;2023-07-13T01:58:08;5.10;;;2.90;;
34064;SDS011;20339;49.754;20.158;2023-07-13T02:00:40;6.90;;;3.30;;
34064;SDS011;20339;49.754;20.158;2023-07-13T02:03:12;6.90;;;3.30;;
34064;SDS011;20339;49.754;20.158;2023-07-13T02:05:49;5.00;;;3.20;;
34064;SDS011;20339;49.754;20.158;2023-07-13T02:08:22;7.10;;;3.20;;
34064;SDS011;20339;49.754;20.158;2023-07-13T02:10:54;5.40;;;3.30;;
34064;SDS011;20339;49.754;20.158;2023-07-13T02:13:30;5.00;;;3.30;;
34064;SDS011;20339;49.754;20.158;2023-07-13T02:16:02;5.70;;;3.10;;
34064;SDS011;20339;49.754;20.158;2023-07-13T02:18:35;5.80;;;3.30;;
34064;SDS011;20339;49.754;20.158;2023-07-13T02:21:08;6.70;;;3.80;;
34064;SDS011;20339;49.754;20.158;2023-07-13T02:23:40;4.70;;;2.90;;
34064;SDS011;20339;49.754;20.158;2023-07-13T02:26:13;6.30;;;3.20;;
34064;SDS011;20339;49.754;20.158;2023-07-13T02:28:46;4.90;;;3.10;;
34064;SDS011;20339;49.754;20.158;2023-07-13T02:31:21;3.90;;;2.90;;
34064;SDS011;20339;49.754;20.158;2023-07-13T02:33:57;5.70;;;3.40;;
34064;SDS011;20339;49.754;20.158;2023-07-13T02:36:30;5.80;;;3.10;;
34064;SDS011;20339;49.754;20.158;2023-07-13T02:39:05;5.90;;;2.70;;
34064;SDS011;20339;49.754;20.158;2023-07-13T02:41:37;4.40;;;2.70;;
34064;SDS011;20339;49.754;20.158;2023-07-13T02:44:09;5.20;;;2.90;;
34064;SDS011;20339;49.754;20.158;2023-07-13T02:46:47;6.40;;;3.10;;
34064;SDS011;20339;49.754;20.158;2023-07-13T02:49:19;4.40;;;3.00;;
34064;SDS011;20339;49.754;20.158;2023-07-13T02:51:56;5.40;;;3.00;;
34064;SDS011;20339;49.754;20.158;2023-07-13T02:54:27;3.40;;;2.70;;
34064;SDS011;20339;49.754;20.158;2023-07-13T02:57:03;7.30;;;2.70;;
34064;SDS011;20339;49.754;20.158;2023-07-13T02:59:36;3.30;;;2.50;;
34064;SDS011;20339;49.754;20.158;2023-07-13T03:02:08;3.50;;;2.90;;
34064;SDS011;20339;49.754;20.158;2023-07-13T03:04:41;4.50;;;2.70;;
34064;SDS011;20339;49.754;20.158;2023-07-13T03:07:14;4.90;;;3.00;;
34064;SDS011;20339;49.754;20.158;2023-07-13T03:09:46;4.30;;;2.80;;
34064;SDS011;20339;49.754;20.158;2023-07-13T03:12:18;4.70;;;3.20;;
34064;SDS011;20339;49.754;20.158;2023-07-13T03:14:51;3.10;;;2.70;;
34064;SDS011;20339;49.754;20.158;2023-07-13T03:17:23;3.90;;;3.10;;
34064;SDS011;20339;49.754;20.158;2023-07-13T03:19:56;3.40;;;3.00;;
34064;SDS011;20339;49.754;20.158;2023-07-13T03:22:29;4.10;;;3.00;;
34064;SDS011;20339;49.754;20.158;2023-07-13T03:25:02;4.00;;;3.20;;
34064;SDS011;20339;49.754;20.158;2023-07-13T03:27:36;3.50;;;3.10;;
34064;SDS011;20339;49.754;20.158;2023-07-13T03:30:12;3.60;;;3.10;;
34064;SDS011;20339;49.754;20.158;2023-07-13T03:32:45;3.80;;;3.00;;
34064;SDS011;20339;49.754;20.158;2023-07-13T03:35:17;4.70;;;3.30;;
34064;SDS011;20339;49.754;20.158;2023-07-13T03:37:50;3.30;;;3.00;;
34064;SDS011;20339;49.754;20.158;2023-07-13T03:40:23;3.40;;;2.90;;
34064;SDS011;20339;49.754;20.158;2023-07-13T03:42:58;5.10;;;3.00;;
34064;SDS011;20339;49.754;20.158;2023-07-13T03:45:31;3.50;;;3.00;;
34064;SDS011;20339;49.754;20.158;2023-07-13T03:48:04;3.70;;;3.20;;
34064;SDS011;20339;49.754;20.158;2023-07-13T03:50:37;4.30;;;3.10;;
34064;SDS011;20339;49.754;20.158;2023-07-13T03:53:10;5.00;;;3.70;;
34064;SDS011;20339;49.754;20.158;2023-07-13T03:55:42;4.80;;;3.50;;
34064;SDS011;20339;49.754;20.158;2023-07-13T03:58:31;6.80;;;3.70;;
34064;SDS011;20339;49.754;20.158;2023-07-13T04:01:04;5.20;;;3.60;;
34064;SDS011;20339;49.754;20.158;2023-07-13T04:03:39;4.90;;;3.40;;
34064;SDS011;20339;49.754;20.158;2023-07-13T04:06:14;4.00;;;3.10;;
34064;SDS011;20339;49.754;20.158;2023-07-13T04:08:49;3.70;;;3.10;;
34064;SDS011;20339;49.754;20.158;2023-07-13T04:11:25;4.00;;;3.00;;
34064;SDS011;20339;49.754;20.158;2023-07-13T04:14:00;4.10;;;3.30;;
34064;SDS011;20339;49.754;20.158;2023-07-13T04:16:32;5.00;;;3.30;;
34064;SDS011;20339;49.754;20.158;2023-07-13T04:19:04;4.80;;;3.10;;
34064;SDS011;20339;49.754;20.158;2023-07-13T04:21:35;3.80;;;3.40;;
34064;SDS011;20339;49.754;20.158;2023-07-13T04:24:07;5.30;;;3.50;;
34064;SDS011;20339;49.754;20.158;2023-07-13T04:26:38;4.40;;;3.40;;
34064;SDS011;20339;49.754;20.158;2023-07-13T04:29:10;4.80;;;4.10;;
34064;SDS011;20339;49.754;20.158;2023-07-13T04:31:47;4.50;;;4.00;;
34064;SDS011;20339;49.754;20.158;2023-07-13T04:34:19;5.50;;;4.00;;
34064;SDS011;20339;49.754;20.158;2023-07-13T04:36:53;4.30;;;3.70;;
34064;SDS011;20339;49.754;20.158;2023-07-13T04:39:26;5.50;;;3.80;;
34064;SDS011;20339;49.754;20.158;2023-07-13T04:41:58;5.00;;;3.80;;
34064;SDS011;20339;49.754;20.158;2023-07-13T04:44:32;4.50;;;4.10;;
34064;SDS011;20339;49.754;20.158;2023-07-13T04:47:06;4.50;;;3.80;;
34064;SDS011;20339;49.754;20.158;2023-07-13T04:49:38;6.60;;;4.10;;
34064;SDS011;20339;49.754;20.158;2023-07-13T04:52:11;4.60;;;3.90;;
34064;SDS011;20339;49.754;20.158;2023-07-13T04:54:43;4.80;;;4.30;;
34064;SDS011;20339;49.754;20.158;2023-07-13T04:57:15;4.10;;;3.70;;
34064;SDS011;20339;49.754;20.158;2023-07-13T04:59:48;4.50;;;3.70;;
34064;SDS011;20339;49.754;20.158;2023-07-13T05:02:21;5.70;;;4.10;;
34064;SDS011;20339;49.754;20.158;2023-07-13T05:04:57;5.20;;;4.50;;
34064;SDS011;20339;49.754;20.158;2023-07-13T05:07:35;4.70;;;3.70;;
34064;SDS011;20339;49.754;20.158;2023-07-13T05:10:08;4.80;;;3.80;;
34064;SDS011;20339;49.754;20.158;2023-07-13T05:12:41;5.90;;;4.60;;
34064;SDS011;20339;49.754;20.158;2023-07-13T05:15:14;7.00;;;4.80;;
34064;SDS011;20339;49.754;20.158;2023-07-13T05:17:49;7.40;;;4.50;;
34064;SDS011;20339;49.754;20.158;2023-07-13T05:20:25;6.00;;;4.30;;
34064;SDS011;20339;49.754;20.158;2023-07-13T05:23:00;4.90;;;3.80;;
34064;SDS011;20339;49.754;20.158;2023-07-13T05:25:33;4.70;;;4.10;;
34064;SDS011;20339;49.754;20.158;2023-07-13T05:28:05;5.90;;;4.10;;
34064;SDS011;20339;49.754;20.158;2023-07-13T05:30:37;5.40;;;4.20;;
34064;SDS011;20339;49.754;20.158;2023-07-13T05:33:10;5.20;;;3.50;;
34064;SDS011;20339;49.754;20.158;2023-07-13T05:35:43;6.30;;;4.30;;
34064;SDS011;20339;49.754;20.158;2023-07-13T05:38:18;5.90;;;3.80;;
34064;SDS011;20339;49.754;20.158;2023-07-13T05:40:54;5.10;;;4.00;;
34064;SDS011;20339;49.754;20.158;2023-07-13T05:43:33;4.50;;;3.80;;
34064;SDS011;20339;49.754;20.158;2023-07-13T05:46:20;5.00;;;3.50;;
34064;SDS011;20339;49.754;20.158;2023-07-13T05:49:01;9.90;;;4.10;;
34064;SDS011;20339;49.754;20.158;2023-07-13T05:51:36;4.10;;;3.60;;
34064;SDS011;20339;49.754;20.158;2023-07-13T05:54:29;5.70;;;4.00;;
34064;SDS011;20339;49.754;20.158;2023-07-13T05:57:09;4.70;;;3.90;;
34064;SDS011;20339;49.754;20.158;2023-07-13T05:59:49;4.20;;;3.60;;
34064;SDS011;20339;49.754;20.158;2023-07-13T06:02:21;4.60;;;4.10;;
34064;SDS011;20339;49.754;20.158;2023-07-13T06:04:53;4.50;;;3.60;;
34064;SDS011;20339;49.754;20.158;2023-07-13T06:07:25;7.60;;;4.20;;
34064;SDS011;20339;49.754;20.158;2023-07-13T06:09:58;6.50;;;4.10;;
34064;SDS011;20339;49.754;20.158;2023-07-13T06:12:31;4.90;;;3.70;;
34064;SDS011;20339;49.754;20.158;2023-07-13T06:15:05;4.80;;;3.80;;
34064;SDS011;20339;49.754;20.158;2023-07-13T06:17:37;5.30;;;4.50;;
34064;SDS011;20339;49.754;20.158;2023-07-13T06:20:10;8.10;;;3.60;;
34064;SDS011;20339;49.754;20.158;2023-07-13T06:22:42;4.10;;;3.40;;
34064;SDS011;20339;49.754;20.158;2023-07-13T06:25:15;5.80;;;3.70;;
34064;SDS011;20339;49.754;20.158;2023-07-13T06:27:47;5.80;;;3.60;;
34064;SDS011;20339;49.754;20.158;2023-07-13T06:30:21;5.30;;;3.60;;
34064;SDS011;20339;49.754;20.158;2023-07-13T06:32:57;5.40;;;3.40;;
34064;SDS011;20339;49.754;20.158;2023-07-13T06:35:30;5.80;;;3.80;;
34064;SDS011;20339;49.754;20.158;2023-07-13T06:38:20;5.00;;;3.90;;
34064;SDS011;20339;49.754;20.158;2023-07-13T06:40:53;4.30;;;3.10;;
34064;SDS011;20339;49.754;20.158;2023-07-13T06:43:26;5.00;;;3.50;;
34064;SDS011;20339;49.754;20.158;2023-07-13T06:45:58;3.60;;;3.30;;
34064;SDS011;20339;49.754;20.158;2023-07-13T06:48:31;5.40;;;3.60;;
34064;SDS011;20339;49.754;20.158;2023-07-13T06:51:02;6.60;;;3.90;;
34064;SDS011;20339;49.754;20.158;2023-07-13T06:53:34;4.30;;;3.50;;
34064;SDS011;20339;49.754;20.158;2023-07-13T06:56:05;4.70;;;3.70;;
34064;SDS011;20339;49.754;20.158;2023-07-13T06:58:37;4.00;;;3.60;;
34064;SDS011;20339;49.754;20.158;2023-07-13T07:01:09;5.10;;;3.60;;
34064;SDS011;20339;49.754;20.158;2023-07-13T07:03:40;5.20;;;3.50;;
34064;SDS011;20339;49.754;20.158;2023-07-13T07:06:15;4.60;;;3.10;;
34064;SDS011;20339;49.754;20.158;2023-07-13T07:08:47;5.20;;;3.40;;
34064;SDS011;20339;49.754;20.158;2023-07-13T07:11:21;5.40;;;3.60;;
34064;SDS011;20339;49.754;20.158;2023-07-13T07:13:54;4.40;;;3.20;;
34064;SDS011;20339;49.754;20.158;2023-07-13T07:16:28;4.60;;;3.50;;
34064;SDS011;20339;49.754;20.158;2023-07-13T07:19:04;5.40;;;3.60;;
34064;SDS011;20339;49.754;20.158;2023-07-13T07:21:36;5.50;;;3.80;;
34064;SDS011;20339;49.754;20.158;2023-07-13T07:24:08;6.40;;;4.30;;
34064;SDS011;20339;49.754;20.158;2023-07-13T07:26:44;5.80;;;4.30;;
34064;SDS011;20339;49.754;20.158;2023-07-13T07:29:19;4.40;;;3.70;;
34064;SDS011;20339;49.754;20.158;2023-07-13T07:31:54;4.90;;;3.50;;
34064;SDS011;20339;49.754;20.158;2023-07-13T07:34:27;5.30;;;4.50;;
34064;SDS011;20339;49.754;20.158;2023-07-13T07:37:02;6.40;;;4.10;;
34064;SDS011;20339;49.754;20.158;2023-07-13T07:39:37;6.00;;;4.10;;
34064;SDS011;20339;49.754;20.158;2023-07-13T07:42:12;6.20;;;4.70;;
34064;SDS011;20339;49.754;20.158;2023-07-13T07:44:43;4.90;;;4.40;;
34064;SDS011;20339;49.754;20.158;2023-07-13T07:47:17;5.60;;;4.20;;
34064;SDS011;20339;49.754;20.158;2023-07-13T07:49:51;5.30;;;4.20;;
34064;SDS011;20339;49.754;20.158;2023-07-13T07:52:22;5.80;;;4.30;;
34064;SDS011;20339;49.754;20.158;2023-07-13T07:54:56;5.60;;;4.50;;
34064;SDS011;20339;49.754;20.158;2023-07-13T07:57:31;6.30;;;4.20;;
34064;SDS011;20339;49.754;20.158;2023-07-13T08:00:02;5.70;;;4.10;;
34064;SDS011;20339;49.754;20.158;2023-07-13T08:02:35;5.80;;;4.40;;
34064;SDS011;20339;49.754;20.158;2023-07-13T08:05:14;8.30;;;4.60;;
34064;SDS011;20339;49.754;20.158;2023-07-13T08:07:49;5.80;;;4.60;;
34064;SDS011;20339;49.754;20.158;2023-07-13T08:10:20;4.80;;;4.30;;
34064;SDS011;20339;49.754;20.158;2023-07-13T08:13:01;10.40;;;4.50;;
34064;SDS011;20339;49.754;20.158;2023-07-13T08:15:32;6.20;;;5.00;;
34064;SDS011;20339;49.754;20.158;2023-07-13T08:18:04;5.80;;;4.80;;
34064;SDS011;20339;49.754;20.158;2023-07-13T08:20:38;6.40;;;4.70;;
34064;SDS011;20339;49.754;20.158;2023-07-13T08:23:14;6.20;;;4.30;;
34064;SDS011;20339;49.754;20.158;2023-07-13T08:25:55;7.20;;;4.30;;
34064;SDS011;20339;49.754;20.158;2023-07-13T08:28:40;5.10;;;4.40;;
34064;SDS011;20339;49.754;20.158;2023-07-13T08:31:23;5.30;;;4.60;;
34064;SDS011;20339;49.754;20.158;2023-07-13T08:34:11;4.50;;;3.80;;
34064;SDS011;20339;49.754;20.158;2023-07-13T08:36:46;5.00;;;4.30;;
34064;SDS011;20339;49.754;20.158;2023-07-13T08:39:20;6.10;;;4.50;;
34064;SDS011;20339;49.754;20.158;2023-07-13T08:41:57;5.60;;;4.30;;
34064;SDS011;20339;49.754;20.158;2023-07-13T08:44:37;5.00;;;4.40;;
34064;SDS011;20339;49.754;20.158;2023-07-13T08:47:26;5.70;;;4.20;;
34064;SDS011;20339;49.754;20.158;2023-07-13T08:50:09;6.40;;;4.70;;
34064;SDS011;20339;49.754;20.158;2023-07-13T08:52:44;6.40;;;4.30;;
34064;SDS011;20339;49.754;20.158;2023-07-13T08:55:17;7.70;;;4.70;;
34064;SDS011;20339;49.754;20.158;2023-07-13T08:58:03;5.50;;;4.60;;
34064;SDS011;20339;49.754;20.158;2023-07-13T09:00:48;5.10;;;4.60;;
34064;SDS011;20339;49.754;20.158;2023-07-13T09:03:40;6.30;;;4.60;;
34064;SDS011;20339;49.754;20.158;2023-07-13T09:06:20;5.60;;;4.70;;
34064;SDS011;20339;49.754;20.158;2023-07-13T09:09:02;7.10;;;5.10;;
34064;SDS011;20339;49.754;20.158;2023-07-13T09:11:49;8.70;;;5.80;;
34064;SDS011;20339;49.754;20.158;2023-07-13T09:14:33;7.40;;;5.80;;
34064;SDS011;20339;49.754;20.158;2023-07-13T09:17:12;8.60;;;5.60;;
34064;SDS011;20339;49.754;20.158;2023-07-13T09:19:53;8.50;;;5.90;;
34064;SDS011;20339;49.754;20.158;2023-07-13T09:22:33;6.90;;;6.00;;
34064;SDS011;20339;49.754;20.158;2023-07-13T09:25:18;8.50;;;5.80;;
34064;SDS011;20339;49.754;20.158;2023-07-13T09:27:57;8.50;;;6.00;;
34064;SDS011;20339;49.754;20.158;2023-07-13T09:30:33;7.80;;;6.10;;
34064;SDS011;20339;49.754;20.158;2023-07-13T09:33:08;8.50;;;6.90;;
34064;SDS011;20339;49.754;20.158;2023-07-13T09:35:42;7.20;;;5.90;;
34064;SDS011;20339;49.754;20.158;2023-07-13T09:38:14;10.40;;;7.20;;
34064;SDS011;20339;49.754;20.158;2023-07-13T09:40:54;9.80;;;6.90;;
34064;SDS011;20339;49.754;20.158;2023-07-13T09:43:31;9.20;;;7.20;;
34064;SDS011;20339;49.754;20.158;2023-07-13T09:46:02;11.00;;;7.20;;
34064;SDS011;20339;49.754;20.158;2023-07-13T09:48:52;9.40;;;6.50;;
34064;SDS011;20339;49.754;20.158;2023-07-13T09:51:27;8.00;;;6.60;;
34064;SDS011;20339;49.754;20.158;2023-07-13T09:54:02;9.20;;;6.90;;
34064;SDS011;20339;49.754;20.158;2023-07-13T10:00:21;9.80;;;7.20;;
34064;SDS011;20339;49.754;20.158;2023-07-13T10:03:02;8.30;;;7.40;;
34064;SDS011;20339;49.754;20.158;2023-07-13T10:05:39;10.80;;;7.60;;
34064;SDS011;20339;49.754;20.158;2023-07-13T10:08:19;11.90;;;7.80;;
34064;SDS011;20339;49.754;20.158;2023-07-13T10:10:59;8.50;;;7.10;;
34064;SDS011;20339;49.754;20.158;2023-07-13T10:13:39;11.60;;;7.70;;
34064;SDS011;20339;49.754;20.158;2023-07-13T10:16:14;10.80;;;7.20;;
34064;SDS011;20339;49.754;20.158;2023-07-13T10:18:46;7.30;;;5.30;;
34064;SDS011;20339;49.754;20.158;2023-07-13T10:21:21;4.70;;;4.20;;
34064;SDS011;20339;49.754;20.158;2023-07-13T10:27:12;5.10;;;4.10;;
34064;SDS011;20339;49.754;20.158;2023-07-13T10:29:48;4.40;;;3.40;;
34064;SDS011;20339;49.754;20.158;2023-07-13T10:32:22;3.70;;;2.50;;
34064;SDS011;20339;49.754;20.158;2023-07-13T10:34:55;4.50;;;3.10;;
34064;SDS011;20339;49.754;20.158;2023-07-13T10:37:31;5.50;;;3.10;;
34064;SDS011;20339;49.754;20.158;2023-07-13T10:40:11;5.50;;;3.20;;
34064;SDS011;20339;49.754;20.158;2023-07-13T10:42:48;6.10;;;3.30;;
34064;SDS011;20339;49.754;20.158;2023-07-13T10:45:22;5.90;;;3.30;;
34064;SDS011;20339;49.754;20.158;2023-07-13T10:48:04;5.80;;;3.00;;
34064;SDS011;20339;49.754;20.158;2023-07-13T10:50:41;5.50;;;3.60;;
34064;SDS011;20339;49.754;20.158;2023-07-13T10:53:19;4.70;;;3.10;;
34064;SDS011;20339;49.754;20.158;2023-07-13T10:55:58;4.80;;;2.90;;
34064;SDS011;20339;49.754;20.158;2023-07-13T10:58:34;5.00;;;3.30;;
34064;SDS011;20339;49.754;20.158;2023-07-13T11:01:09;4.10;;;3.00;;
34064;SDS011;20339;49.754;20.158;2023-07-13T11:03:48;4.20;;;2.90;;
34064;SDS011;20339;49.754;20.158;2023-07-13T11:37:58;3.80;;;2.30;;
34064;SDS011;20339;49.754;20.158;2023-07-13T11:40:31;4.00;;;2.50;;
34064;SDS011;20339;49.754;20.158;2023-07-13T11:43:04;3.90;;;3.00;;
34064;SDS011;20339;49.754;20.158;2023-07-13T11:45:42;3.70;;;2.70;;
34064;SDS011;20339;49.754;20.158;2023-07-13T11:48:23;3.30;;;2.50;;
34064;SDS011;20339;49.754;20.158;2023-07-13T11:50:58;4.40;;;2.40;;
34064;SDS011;20339;49.754;20.158;2023-07-13T11:53:35;3.40;;;2.50;;
34064;SDS011;20339;49.754;20.158;2023-07-13T12:03:22;3.10;;;2.50;;
34064;SDS011;20339;49.754;20.158;2023-07-13T12:24:22;2.60;;;2.00;;
34064;SDS011;20339;49.754;20.158;2023-07-13T12:26:58;1.00;;;0.90;;
34064;SDS011;20339;49.754;20.158;2023-07-13T12:29:32;1.70;;;0.80;;
34064;SDS011;20339;49.754;20.158;2023-07-13T12:32:07;2.20;;;1.10;;
34064;SDS011;20339;49.754;20.158;2023-07-13T12:34:53;0.50;;;0.50;;
34064;SDS011;20339;49.754;20.158;2023-07-13T12:37:26;0.60;;;0.60;;
34064;SDS011;20339;49.754;20.158;2023-07-13T12:39:59;1.50;;;0.90;;
34064;SDS011;20339;49.754;20.158;2023-07-13T12:42:37;1.90;;;1.60;;
34064;SDS011;20339;49.754;20.158;2023-07-13T12:45:18;1.10;;;1.00;;
34064;SDS011;20339;49.754;20.158;2023-07-13T12:47:55;1.60;;;1.30;;
34064;SDS011;20339;49.754;20.158;2023-07-13T12:50:33;1.10;;;0.80;;
34064;SDS011;20339;49.754;20.158;2023-07-13T12:53:12;1.30;;;0.90;;
34064;SDS011;20339;49.754;20.158;2023-07-13T12:55:49;0.70;;;0.60;;
34064;SDS011;20339;49.754;20.158;2023-07-13T13:01:02;1.30;;;1.00;;
34064;SDS011;20339;49.754;20.158;2023-07-13T13:03:36;1.30;;;1.20;;
34064;SDS011;20339;49.754;20.158;2023-07-13T13:06:20;2.00;;;1.30;;
34064;SDS011;20339;49.754;20.158;2023-07-13T13:08:56;1.20;;;1.10;;
34064;SDS011;20339;49.754;20.158;2023-07-13T13:11:29;2.10;;;1.50;;
34064;SDS011;20339;49.754;20.158;2023-07-13T13:14:05;1.90;;;1.40;;
34064;SDS011;20339;49.754;20.158;2023-07-13T13:16:42;2.40;;;1.30;;
34064;SDS011;20339;49.754;20.158;2023-07-13T13:19:20;2.50;;;1.50;;
34064;SDS011;20339;49.754;20.158;2023-07-13T13:21:55;1.90;;;1.50;;
34064;SDS011;20339;49.754;20.158;2023-07-13T13:24:33;3.00;;;2.10;;
34064;SDS011;20339;49.754;20.158;2023-07-13T13:27:09;2.20;;;1.80;;
34064;SDS011;20339;49.754;20.158;2023-07-13T13:29:47;2.20;;;1.50;;
34064;SDS011;20339;49.754;20.158;2023-07-13T13:32:26;1.40;;;1.20;;
34064;SDS011;20339;49.754;20.158;2023-07-13T13:34:58;1.50;;;1.20;;
34064;SDS011;20339;49.754;20.158;2023-07-13T13:37:31;2.20;;;1.20;;
34064;SDS011;20339;49.754;20.158;2023-07-13T13:40:04;1.10;;;1.00;;
34064;SDS011;20339;49.754;20.158;2023-07-13T13:42:46;1.30;;;1.20;;
34064;SDS011;20339;49.754;20.158;2023-07-13T13:45:19;1.30;;;1.20;;
34064;SDS011;20339;49.754;20.158;2023-07-13T13:47:55;2.50;;;1.20;;
34064;SDS011;20339;49.754;20.158;2023-07-13T13:50:29;2.10;;;1.90;;
34064;SDS011;20339;49.754;20.158;2023-07-13T13:53:01;2.40;;;1.50;;
34064;SDS011;20339;49.754;20.158;2023-07-13T13:55:33;2.30;;;1.60;;
34064;SDS011;20339;49.754;20.158;2023-07-13T13:58:10;1.60;;;1.50;;
34064;SDS011;20339;49.754;20.158;2023-07-13T14:00:42;2.20;;;1.50;;
34064;SDS011;20339;49.754;20.158;2023-07-13T14:03:19;2.30;;;1.30;;
34064;SDS011;20339;49.754;20.158;2023-07-13T14:05:52;1.50;;;1.30;;
34064;SDS011;20339;49.754;20.158;2023-07-13T14:08:27;2.10;;;1.70;;
34064;SDS011;20339;49.754;20.158;2023-07-13T14:11:00;1.60;;;1.50;;
34064;SDS011;20339;49.754;20.158;2023-07-13T14:13:35;3.00;;;1.30;;
34064;SDS011;20339;49.754;20.158;2023-07-13T14:16:11;2.00;;;1.80;;
34064;SDS011;20339;49.754;20.158;2023-07-13T14:18:47;1.40;;;1.30;;
34064;SDS011;20339;49.754;20.158;2023-07-13T14:21:23;1.60;;;1.50;;
34064;SDS011;20339;49.754;20.158;2023-07-13T14:23:56;2.10;;;1.90;;
34064;SDS011;20339;49.754;20.158;2023-07-13T14:26:32;1.50;;;1.40;;
34064;SDS011;20339;49.754;20.158;2023-07-13T14:29:13;1.80;;;1.60;;
34064;SDS011;20339;49.754;20.158;2023-07-13T14:31:46;2.50;;;1.20;;
34064;SDS011;20339;49.754;20.158;2023-07-13T14:34:19;1.80;;;1.50;;
34064;SDS011;20339;49.754;20.158;2023-07-13T14:36:54;1.50;;;1.30;;
34064;SDS011;20339;49.754;20.158;2023-07-13T14:39:29;1.60;;;1.30;;
34064;SDS011;20339;49.754;20.158;2023-07-13T14:42:01;2.20;;;1.20;;
34064;SDS011;20339;49.754;20.158;2023-07-13T14:44:39;3.00;;;1.60;;
34064;SDS011;20339;49.754;20.158;2023-07-13T14:47:10;2.10;;;1.40;;
34064;SDS011;20339;49.754;20.158;2023-07-13T14:49:43;3.30;;;1.70;;
34064;SDS011;20339;49.754;20.158;2023-07-13T14:52:16;3.30;;;1.30;;
34064;SDS011;20339;49.754;20.158;2023-07-13T14:54:49;1.20;;;1.10;;
34064;SDS011;20339;49.754;20.158;2023-07-13T14:57:24;1.30;;;1.20;;
34064;SDS011;20339;49.754;20.158;2023-07-13T14:59:56;2.00;;;1.60;;
34064;SDS011;20339;49.754;20.158;2023-07-13T15:02:29;2.40;;;1.50;;
34064;SDS011;20339;49.754;20.158;2023-07-13T15:07:43;1.40;;;1.30;;
34064;SDS011;20339;49.754;20.158;2023-07-13T15:10:16;2.20;;;1.30;;
34064;SDS011;20339;49.754;20.158;2023-07-13T15:12:50;1.70;;;1.60;;
34064;SDS011;20339;49.754;20.158;2023-07-13T15:15:22;1.70;;;1.40;;
34064;SDS011;20339;49.754;20.158;2023-07-13T15:17:54;1.80;;;1.50;;
34064;SDS011;20339;49.754;20.158;2023-07-13T15:20:26;2.30;;;1.50;;
34064;SDS011;20339;49.754;20.158;2023-07-13T15:23:02;2.00;;;1.50;;
34064;SDS011;20339;49.754;20.158;2023-07-13T15:25:36;1.90;;;1.60;;
34064;SDS011;20339;49.754;20.158;2023-07-13T15:28:07;2.20;;;1.70;;
34064;SDS011;20339;49.754;20.158;2023-07-13T15:30:43;2.30;;;1.50;;
34064;SDS011;20339;49.754;20.158;2023-07-13T15:33:16;1.50;;;1.40;;
34064;SDS011;20339;49.754;20.158;2023-07-13T15:35:51;3.10;;;1.30;;
34064;SDS011;20339;49.754;20.158;2023-07-13T15:38:23;2.20;;;1.50;;
34064;SDS011;20339;49.754;20.158;2023-07-13T15:40:57;1.70;;;1.40;;
34064;SDS011;20339;49.754;20.158;2023-07-13T15:43:28;3.50;;;1.70;;
34064;SDS011;20339;49.754;20.158;2023-07-13T15:46:03;2.10;;;1.90;;
34064;SDS011;20339;49.754;20.158;2023-07-13T15:48:35;2.20;;;1.60;;
34064;SDS011;20339;49.754;20.158;2023-07-13T15:51:11;1.80;;;1.40;;
34064;SDS011;20339;49.754;20.158;2023-07-13T15:53:48;2.10;;;1.60;;
34064;SDS011;20339;49.754;20.158;2023-07-13T15:56:24;2.90;;;1.80;;
34064;SDS011;20339;49.754;20.158;2023-07-13T15:58:57;3.80;;;1.90;;
34064;SDS011;20339;49.754;20.158;2023-07-13T16:01:29;2.00;;;1.80;;
34064;SDS011;20339;49.754;20.158;2023-07-13T16:04:02;2.20;;;1.70;;
34064;SDS011;20339;49.754;20.158;2023-07-13T16:06:35;2.60;;;1.60;;
34064;SDS011;20339;49.754;20.158;2023-07-13T16:09:11;2.40;;;2.00;;
34064;SDS011;20339;49.754;20.158;2023-07-13T16:11:50;2.60;;;1.90;;
34064;SDS011;20339;49.754;20.158;2023-07-13T16:14:25;3.60;;;2.00;;
34064;SDS011;20339;49.754;20.158;2023-07-13T16:16:56;2.90;;;1.90;;
34064;SDS011;20339;49.754;20.158;2023-07-13T16:19:28;2.00;;;1.80;;
34064;SDS011;20339;49.754;20.158;2023-07-13T16:21:59;2.30;;;1.70;;
34064;SDS011;20339;49.754;20.158;2023-07-13T16:24:34;3.40;;;1.90;;
34064;SDS011;20339;49.754;20.158;2023-07-13T16:27:08;1.80;;;1.70;;
34064;SDS011;20339;49.754;20.158;2023-07-13T16:42:23;2.80;;;2.10;;
34064;SDS011;20339;49.754;20.158;2023-07-13T16:44:55;2.80;;;2.40;;